MOL Modern — V7VS6 — position and weather

sailwx.info

Track history (hours):
 
Tides and Currents Weather Stations Pressure Air Temp Water Temp Dewpoint Dewpoint Depression Visibility Wind Speed Wind Dir Waves Ship Positions

MOL Modern

Last reported at 2015-May-03 01:32 UTC. Time now 2015-May-04 16:04 UTC.
Position N 01°52' E 102°27'.

Length 302 m; draft 12.9 m.

Type: Ship (hazmat cat A). MMSI: 538004203.

Date/timePositionNaut miles runAvg speedWind from/ knotsBaromVisibWave heightAir tempDewpointWater temp
2015-May-03 01:32N 01°52' E 102°27'1818.1
2015-May-03 00:33N 01°45' E 102°43'1918.3
2015-May-02 23:31N 01°37' E 103°00'5714.4
2015-May-02 19:32N 01°13' E 103°52'3 2.8
2015-May-02 18:29N 01°16' E 103°51'0 0.0
2015-May-02 17:17N 01°16' E 103°51'0 0.0
2015-May-02 16:23N 01°16' E 103°51'0 0.0
2015-May-02 15:32N 01°16' E 103°51'0 0.0
2015-May-02 14:26N 01°16' E 103°51'0 0.1
2015-May-02 13:29N 01°16' E 103°51'0 0.1
2015-May-02 12:32N 01°16' E 103°51'0 0.0
2015-May-02 10:20N 01°16' E 103°51'0 0.0
2015-May-02 09:11N 01°16' E 103°51'0 0.0
2015-May-02 08:29N 01°16' E 103°51'0 0.1
2015-May-02 07:32N 01°16' E 103°51'0 0.0
2015-May-02 06:05N 01°16' E 103°51'0 0.0
2015-May-02 05:29N 01°16' E 103°51'0 0.0
2015-May-02 04:14N 01°16' E 103°51'0 0.0
2015-May-02 02:29N 01°16' E 103°51'0 0.0
2015-May-02 01:29N 01°16' E 103°51'0 0.0
2015-May-01 23:29N 01°16' E 103°51'0 0.1
2015-May-01 22:29N 01°16' E 103°51'0 0.1
2015-May-01 21:23N 01°16' E 103°51'0 0.0
2015-May-01 20:29N 01°16' E 103°51'0 0.1
2015-May-01 19:32N 01°16' E 103°51'0 0.1
2015-May-01 18:32N 01°16' E 103°51'0 0.1
2015-May-01 17:32N 01°16' E 103°51'0 0.0
2015-May-01 16:14N 01°16' E 103°51'0 0.0
2015-May-01 15:29N 01°16' E 103°51'0 0.2
2015-May-01 14:33N 01°16' E 103°51'3 3.5
2015-May-01 13:33N 01°14' E 103°54'9 8.7
2015-May-01 12:32N 01°16' E 104°02'10 9.2
2015-May-01 11:26N 01°17' E 104°12'  
2015-Apr-26 14:33N 22°16' E 114°31'2311.2
2015-Apr-26 12:31N 22°34' E 114°16'0 0.2
2015-Apr-26 11:32N 22°34' E 114°16'0 0.0
2015-Apr-26 10:20N 22°34' E 114°16'0 0.0
2015-Apr-26 07:20N 22°34' E 114°16'0 0.0
2015-Apr-25 23:15N 22°34' E 114°16'0 0.0
2015-Apr-25 22:20N 22°34' E 114°16'0 0.0
2015-Apr-25 18:26N 22°34' E 114°16'0 0.0
2015-Apr-25 16:26N 22°34' E 114°16'0 0.0
2015-Apr-25 15:20N 22°34' E 114°16'1 0.9
2015-Apr-25 14:30N 22°34' E 114°16'15 3.5
2015-Apr-25 10:23N 22°25' E 114°29'1011.7
2015-Apr-25 09:31N 22°15' E 114°28'1111.2
2015-Apr-25 08:33N 22°07' E 114°20'1110.7
2015-Apr-25 07:31N 22°13' E 114°10'7 7.4
2015-Apr-25 06:33N 22°20' E 114°07'0 0.4
2015-Apr-25 05:31N 22°20' E 114°08'0 0.0
2015-Apr-25 03:31N 22°20' E 114°08'0 0.0
2015-Apr-25 02:25N 22°20' E 114°08'0 0.0
2015-Apr-25 01:31N 22°20' E 114°08'0 0.0
2015-Apr-25 00:31N 22°20' E 114°08'0 0.0
2015-Apr-24 23:31N 22°20' E 114°08'0 0.0
2015-Apr-24 22:31N 22°20' E 114°08'0 0.0
2015-Apr-24 21:31N 22°20' E 114°08'0 0.0
2015-Apr-24 20:31N 22°20' E 114°08'0 0.0
2015-Apr-24 19:31N 22°20' E 114°08'0 0.0
2015-Apr-24 18:31N 22°20' E 114°08'0 0.0
2015-Apr-24 17:31N 22°20' E 114°08'0 0.0
2015-Apr-24 16:31N 22°20' E 114°08'0 0.0
2015-Apr-24 15:31N 22°20' E 114°08'0 0.0
2015-Apr-24 14:31N 22°20' E 114°08'0 0.0
2015-Apr-24 13:31N 22°20' E 114°08'0 0.0
2015-Apr-24 12:31N 22°20' E 114°08'0 0.0
2015-Apr-24 11:31N 22°20' E 114°08'0 0.0
2015-Apr-24 10:31N 22°20' E 114°08'0 0.3
2015-Apr-24 09:33N 22°20' E 114°07'8 7.6
2015-Apr-24 08:33N 22°13' E 114°10'9 8.9
2015-Apr-24 07:32N 22°09' E 114°19'12 9.2
2015-Apr-24 06:13N 21°58' E 114°26'1315.9
2015-Apr-24 05:22N 21°45' E 114°23'  
Track history (hours):
 
Tides and Currents Weather Stations Pressure Air Temp Water Temp Dewpoint Dewpoint Depression Visibility Wind Speed Wind Dir Waves Ship Positions

MOL Modern

Last reported at 2015-May-03 01:32 UTC. Time now 2015-May-04 16:04 UTC.
Position N 01°52' E 102°27'.

Length 302 m; draft 12.9 m.

Type: Ship (hazmat cat A). MMSI: 538004203.

Date/timePositionNaut miles runAvg speedWind from/ knotsBaromVisibWave heightAir tempDewpointWater temp
2015-May-03 01:32N 01°52' E 102°27'1818.1
2015-May-03 00:33N 01°45' E 102°43'1918.3
2015-May-02 23:31N 01°37' E 103°00'5714.4
2015-May-02 19:32N 01°13' E 103°52'3 2.8
2015-May-02 18:29N 01°16' E 103°51'0 0.0
2015-May-02 17:17N 01°16' E 103°51'0 0.0
2015-May-02 16:23N 01°16' E 103°51'0 0.0
2015-May-02 15:32N 01°16' E 103°51'0 0.0
2015-May-02 14:26N 01°16' E 103°51'0 0.1
2015-May-02 13:29N 01°16' E 103°51'0 0.1
2015-May-02 12:32N 01°16' E 103°51'0 0.0
2015-May-02 10:20N 01°16' E 103°51'0 0.0
2015-May-02 09:11N 01°16' E 103°51'0 0.0
2015-May-02 08:29N 01°16' E 103°51'0 0.1
2015-May-02 07:32N 01°16' E 103°51'0 0.0
2015-May-02 06:05N 01°16' E 103°51'0 0.0
2015-May-02 05:29N 01°16' E 103°51'0 0.0
2015-May-02 04:14N 01°16' E 103°51'0 0.0
2015-May-02 02:29N 01°16' E 103°51'0 0.0
2015-May-02 01:29N 01°16' E 103°51'0 0.0
2015-May-01 23:29N 01°16' E 103°51'0 0.1
2015-May-01 22:29N 01°16' E 103°51'0 0.1
2015-May-01 21:23N 01°16' E 103°51'0 0.0
2015-May-01 20:29N 01°16' E 103°51'0 0.1
2015-May-01 19:32N 01°16' E 103°51'0 0.1
2015-May-01 18:32N 01°16' E 103°51'0 0.1
2015-May-01 17:32N 01°16' E 103°51'0 0.0
2015-May-01 16:14N 01°16' E 103°51'0 0.0
2015-May-01 15:29N 01°16' E 103°51'0 0.2
2015-May-01 14:33N 01°16' E 103°51'3 3.5
2015-May-01 13:33N 01°14' E 103°54'9 8.7
2015-May-01 12:32N 01°16' E 104°02'10 9.2
2015-May-01 11:26N 01°17' E 104°12'  
2015-Apr-26 14:33N 22°16' E 114°31'2311.2
2015-Apr-26 12:31N 22°34' E 114°16'0 0.2
2015-Apr-26 11:32N 22°34' E 114°16'0 0.0
2015-Apr-26 10:20N 22°34' E 114°16'0 0.0
2015-Apr-26 07:20N 22°34' E 114°16'0 0.0
2015-Apr-25 23:15N 22°34' E 114°16'0 0.0
2015-Apr-25 22:20N 22°34' E 114°16'0 0.0
2015-Apr-25 18:26N 22°34' E 114°16'0 0.0
2015-Apr-25 16:26N 22°34' E 114°16'0 0.0
2015-Apr-25 15:20N 22°34' E 114°16'1 0.9
2015-Apr-25 14:30N 22°34' E 114°16'15 3.5
2015-Apr-25 10:23N 22°25' E 114°29'1011.7
2015-Apr-25 09:31N 22°15' E 114°28'1111.2
2015-Apr-25 08:33N 22°07' E 114°20'1110.7
2015-Apr-25 07:31N 22°13' E 114°10'7 7.4
2015-Apr-25 06:33N 22°20' E 114°07'0 0.4
2015-Apr-25 05:31N 22°20' E 114°08'0 0.0
2015-Apr-25 03:31N 22°20' E 114°08'0 0.0
2015-Apr-25 02:25N 22°20' E 114°08'0 0.0
2015-Apr-25 01:31N 22°20' E 114°08'0 0.0
2015-Apr-25 00:31N 22°20' E 114°08'0 0.0
2015-Apr-24 23:31N 22°20' E 114°08'0 0.0
2015-Apr-24 22:31N 22°20' E 114°08'0 0.0
2015-Apr-24 21:31N 22°20' E 114°08'0 0.0
2015-Apr-24 20:31N 22°20' E 114°08'0 0.0
2015-Apr-24 19:31N 22°20' E 114°08'0 0.0
2015-Apr-24 18:31N 22°20' E 114°08'0 0.0
2015-Apr-24 17:31N 22°20' E 114°08'0 0.0
2015-Apr-24 16:31N 22°20' E 114°08'0 0.0
2015-Apr-24 15:31N 22°20' E 114°08'0 0.0
2015-Apr-24 14:31N 22°20' E 114°08'0 0.0
2015-Apr-24 13:31N 22°20' E 114°08'0 0.0
2015-Apr-24 12:31N 22°20' E 114°08'0 0.0
2015-Apr-24 11:31N 22°20' E 114°08'0 0.0
2015-Apr-24 10:31N 22°20' E 114°08'0 0.3
2015-Apr-24 09:33N 22°20' E 114°07'8 7.6
2015-Apr-24 08:33N 22°13' E 114°10'9 8.9
2015-Apr-24 07:32N 22°09' E 114°19'12 9.2
2015-Apr-24 06:13N 21°58' E 114°26'1315.9
2015-Apr-24 05:22N 21°45' E 114°23'  

Dump ship's entire track history